createdAt,value
2019-05-29T00:01:04.440Z,57.88
2019-05-29T00:02:10.083Z,57.91
2019-05-29T00:03:36.168Z,57.90
2019-05-29T00:05:00.556Z,57.92
2019-05-29T00:06:06.265Z,57.95
2019-05-29T00:07:51.361Z,57.94
2019-05-29T00:08:56.916Z,57.96
2019-05-29T00:11:26.814Z,58.06
2019-05-29T00:12:32.030Z,58.11
2019-05-29T00:13:37.545Z,58.17
2019-05-29T00:14:42.493Z,58.22
2019-05-29T00:15:48.003Z,58.28
2019-05-29T00:18:35.985Z,58.40
2019-05-29T00:19:40.965Z,58.48
2019-05-29T00:20:46.885Z,58.59
2019-05-29T00:27:15.706Z,58.81
2019-05-29T00:28:21.811Z,58.86
2019-05-29T00:32:15.435Z,59.00
2019-05-29T00:33:21.238Z,59.11
2019-05-29T00:34:26.192Z,59.16
2019-05-29T00:35:50.186Z,59.20
2019-05-29T00:37:14.702Z,59.25
2019-05-29T00:38:20.205Z,59.27
2019-05-29T00:39:25.166Z,59.27
2019-05-29T00:40:49.233Z,59.31
2019-05-29T00:41:55.788Z,59.33
2019-05-29T00:43:01.619Z,59.37
2019-05-29T00:44:33.919Z,59.37
2019-05-29T00:46:11.392Z,59.43
2019-05-29T00:49:45.371Z,59.53
2019-05-29T00:51:10.945Z,59.62
2019-05-29T00:54:20.619Z,59.71
2019-05-29T00:55:45.342Z,59.78
2019-05-29T00:56:50.313Z,59.86
2019-05-29T00:58:15.027Z,59.93
2019-05-29T00:59:20.420Z,59.99
2019-05-29T01:00:45.141Z,60.05
2019-05-29T01:06:28.153Z,60.15
2019-05-29T01:07:33.117Z,60.20
2019-05-29T01:08:38.612Z,60.22
2019-05-29T01:10:02.770Z,60.26
2019-05-29T01:11:26.755Z,60.27
2019-05-29T01:14:15.173Z,60.33
2019-05-29T01:17:24.534Z,60.32
2019-05-29T01:18:48.572Z,60.34
2019-05-29T01:20:13.947Z,60.35
2019-05-29T01:23:42.710Z,60.44
2019-05-29T01:25:07.546Z,60.46
2019-05-29T01:26:12.767Z,60.53
2019-05-29T01:27:18.821Z,60.64
2019-05-29T01:28:44.403Z,60.69
2019-05-29T01:29:49.920Z,60.76
2019-05-29T01:31:15.118Z,60.79
2019-05-29T01:32:40.952Z,60.85
2019-05-29T01:33:47.361Z,60.88
2019-05-29T01:34:52.919Z,60.95
2019-05-29T01:35:57.832Z,61.00
2019-05-29T01:37:22.353Z,61.02
2019-05-29T01:38:46.455Z,61.03
2019-05-29T01:39:51.974Z,61.00
2019-05-29T01:40:56.885Z,61.03
2019-05-29T01:42:02.403Z,61.01
2019-05-29T01:46:59.796Z,60.99
2019-05-29T01:48:23.946Z,61.01
2019-05-29T01:49:48.707Z,61.05
2019-05-29T01:50:53.944Z,61.04
2019-05-29T01:52:19.676Z,61.05
2019-05-29T01:53:45.340Z,61.09
2019-05-29T01:54:50.902Z,61.07
2019-05-29T01:56:15.586Z,61.14
2019-05-29T01:57:39.693Z,61.18
2019-05-29T01:59:04.409Z,61.18
2019-05-29T02:00:49.031Z,61.21
2019-05-29T02:03:40.618Z,61.26
2019-05-29T02:04:46.190Z,61.32
2019-05-29T02:06:10.315Z,61.39
2019-05-29T02:07:34.318Z,61.46
2019-05-29T02:08:58.458Z,61.47
2019-05-29T02:11:47.944Z,61.44
2019-05-29T02:14:18.461Z,61.45
2019-05-29T02:16:02.908Z,61.44
2019-05-29T02:17:27.995Z,61.44
2019-05-29T02:20:23.620Z,61.45
2019-05-29T02:21:47.940Z,61.52
2019-05-29T02:23:12.003Z,61.59
2019-05-29T02:26:00.153Z,61.67
2019-05-29T02:27:25.579Z,61.67
2019-05-29T02:28:50.884Z,61.69
2019-05-29T02:29:56.381Z,61.75
2019-05-29T02:31:01.363Z,61.79
2019-05-29T02:32:25.696Z,61.84
2019-05-29T02:33:30.583Z,61.93
2019-05-29T02:34:36.216Z,61.94
2019-05-29T02:37:26.113Z,62.01
2019-05-29T02:39:09.937Z,61.98
2019-05-29T02:40:34.664Z,61.96
2019-05-29T02:41:58.247Z,62.03
2019-05-29T02:43:03.176Z,62.05
2019-05-29T02:44:27.676Z,62.11
2019-05-29T02:45:55.009Z,62.17
2019-05-29T02:50:33.495Z,62.25
2019-05-29T02:52:18.093Z,62.25
2019-05-29T02:53:42.534Z,62.35
2019-05-29T02:55:07.266Z,62.38
2019-05-29T02:56:31.388Z,62.39
2019-05-29T02:57:55.353Z,62.42
2019-05-29T02:59:21.088Z,62.45
2019-05-29T03:02:54.227Z,62.52
2019-05-29T03:04:18.383Z,62.57
2019-05-29T03:05:24.036Z,62.71
2019-05-29T03:06:48.173Z,62.76
2019-05-29T03:08:34.378Z,62.88
2019-05-29T03:10:18.042Z,62.98
2019-05-29T03:11:42.768Z,62.98
2019-05-29T03:13:06.886Z,63.03
2019-05-29T03:14:31.793Z,63.12
2019-05-29T03:16:09.557Z,63.15
2019-05-29T03:17:23.805Z,63.25
2019-05-29T03:20:34.433Z,63.36
2019-05-29T03:23:24.254Z,63.47
2019-05-29T03:24:50.083Z,63.52
2019-05-29T03:25:55.071Z,63.56
2019-05-29T03:27:00.585Z,63.67
2019-05-29T03:31:41.926Z,63.87
2019-05-29T03:32:59.568Z,63.91
2019-05-29T03:36:37.524Z,63.99
2019-05-29T03:38:14.510Z,63.91
2019-05-29T03:39:19.490Z,63.87
2019-05-29T03:40:26.518Z,63.88
2019-05-29T03:42:10.301Z,63.92
2019-05-29T03:44:40.115Z,64.01
2019-05-29T03:45:45.616Z,64.03
2019-05-29T03:46:50.542Z,64.07
2019-05-29T03:47:56.117Z,64.15
2019-05-29T03:49:01.078Z,64.20
2019-05-29T03:52:15.722Z,64.25
2019-05-29T03:53:21.257Z,64.28
2019-05-29T03:54:27.050Z,64.34
2019-05-29T03:55:52.880Z,64.42
2019-05-29T03:56:57.847Z,64.46
2019-05-29T03:58:03.653Z,64.51
2019-05-29T03:59:08.613Z,64.57
2019-05-29T04:00:53.487Z,64.65
2019-05-29T04:02:17.614Z,64.72
2019-05-29T04:03:23.175Z,64.69
2019-05-29T04:04:29.035Z,64.69
2019-05-29T04:05:55.097Z,64.70
2019-05-29T04:07:00.295Z,64.73
2019-05-29T04:09:31.294Z,64.79
2019-05-29T04:11:15.464Z,64.79
2019-05-29T04:12:40.221Z,64.77
2019-05-29T04:13:45.274Z,64.75
2019-05-29T04:15:31.504Z,64.72
2019-05-29T04:17:35.625Z,64.77
2019-05-29T04:19:20.300Z,64.81
2019-05-29T04:20:27.512Z,64.83
2019-05-29T04:22:34.250Z,64.92
2019-05-29T04:24:38.586Z,64.95
2019-05-29T04:26:23.174Z,64.90
2019-05-29T04:28:07.848Z,64.90
2019-05-29T04:29:52.435Z,64.89
2019-05-29T04:34:25.313Z,64.95
2019-05-29T04:35:30.567Z,65.01
2019-05-29T04:36:36.916Z,65.06
2019-05-29T04:38:02.555Z,65.09
2019-05-29T04:39:47.132Z,65.08
2019-05-29T04:40:52.045Z,65.13
2019-05-29T04:42:16.053Z,65.08
2019-05-29T04:43:20.984Z,65.06
2019-05-29T04:44:44.980Z,65.10
2019-05-29T04:46:09.374Z,65.13
2019-05-29T04:47:14.920Z,65.14
2019-05-29T04:48:40.467Z,65.17
2019-05-29T04:50:45.014Z,65.19
2019-05-29T04:52:09.167Z,65.21
2019-05-29T04:53:33.638Z,65.23
2019-05-29T04:54:59.486Z,65.26
2019-05-29T04:56:24.177Z,65.28
2019-05-29T04:57:29.322Z,65.33
2019-05-29T04:58:55.788Z,65.35
2019-05-29T05:00:00.830Z,65.35
2019-05-29T05:02:31.101Z,65.34
2019-05-29T05:03:57.455Z,65.36
2019-05-29T05:05:02.560Z,65.26
2019-05-29T05:06:08.161Z,65.23
2019-05-29T05:07:33.193Z,65.24
2019-05-29T05:10:42.397Z,65.11
2019-05-29T05:11:48.081Z,65.05
2019-05-29T05:13:12.290Z,64.97
2019-05-29T05:14:37.803Z,64.89
2019-05-29T05:18:06.680Z,65.06
2019-05-29T05:20:36.463Z,64.91
2019-05-29T05:23:26.906Z,64.43
2019-05-29T05:24:51.088Z,64.06
2019-05-29T05:26:15.108Z,63.72
2019-05-29T05:27:21.783Z,63.36
2019-05-29T05:28:27.427Z,63.09
2019-05-29T05:29:51.575Z,62.77
2019-05-29T05:30:57.278Z,62.40
2019-05-29T05:32:02.449Z,62.12
2019-05-29T05:33:27.143Z,61.77
2019-05-29T05:34:32.665Z,61.56
2019-05-29T05:37:02.766Z,61.09
2019-05-29T05:38:27.071Z,60.67
2019-05-29T05:39:51.301Z,60.33
2019-05-29T05:41:16.071Z,59.98
2019-05-29T05:42:21.036Z,59.65
2019-05-29T05:43:45.044Z,59.27
2019-05-29T05:44:50.017Z,59.00
2019-05-29T05:45:55.607Z,58.67
2019-05-29T05:47:00.682Z,58.31
2019-05-29T05:48:06.628Z,57.99
2019-05-29T05:49:31.298Z,57.73
2019-05-29T05:51:16.171Z,57.50
2019-05-29T05:52:41.641Z,57.31
2019-05-29T05:54:07.454Z,57.10
2019-05-29T05:55:52.049Z,56.88
2019-05-29T05:57:16.460Z,56.52
2019-05-29T05:58:21.984Z,56.25
2019-05-29T05:59:46.122Z,55.87
2019-05-29T06:01:31.729Z,55.43
2019-05-29T06:02:56.817Z,54.99
2019-05-29T06:04:02.346Z,54.70
2019-05-29T06:05:46.977Z,54.37
2019-05-29T06:07:32.291Z,54.07
2019-05-29T06:10:01.781Z,53.47
2019-05-29T06:11:25.914Z,53.29
2019-05-29T06:12:32.260Z,53.22
2019-05-29T06:14:16.791Z,53.21
2019-05-29T06:15:42.835Z,53.11
2019-05-29T06:17:26.987Z,52.98
2019-05-29T06:20:56.384Z,52.67
2019-05-29T06:22:01.455Z,52.43
2019-05-29T06:23:25.808Z,52.23
2019-05-29T06:24:31.196Z,51.98
2019-05-29T06:25:38.628Z,51.80
2019-05-29T06:27:22.067Z,51.73
2019-05-29T06:28:27.904Z,51.60
2019-05-29T06:29:52.040Z,51.61
2019-05-29T06:30:57.636Z,51.46
2019-05-29T06:32:02.981Z,51.32
2019-05-29T06:33:27.789Z,51.15
2019-05-29T06:34:33.512Z,50.89
2019-05-29T06:37:43.779Z,50.44
2019-05-29T06:39:09.278Z,50.36
2019-05-29T06:40:53.898Z,50.26
2019-05-29T06:42:18.127Z,50.08
2019-05-29T06:44:03.244Z,50.01
2019-05-29T06:45:47.843Z,49.96
2019-05-29T06:47:31.364Z,49.92
2019-05-29T06:48:49.322Z,50.03
2019-05-29T06:50:03.147Z,49.96
2019-05-29T06:51:27.144Z,49.72
2019-05-29T06:52:51.637Z,49.73
2019-05-29T06:56:01.865Z,49.87
2019-05-29T06:57:45.622Z,49.70
2019-05-29T06:58:50.746Z,49.51
2019-05-29T06:59:56.474Z,49.34
2019-05-29T07:01:20.536Z,49.17
2019-05-29T07:02:44.951Z,48.95
2019-05-29T07:03:49.957Z,48.75
2019-05-29T07:06:38.636Z,48.58
2019-05-29T07:07:44.510Z,48.62
2019-05-29T07:09:10.429Z,48.63
2019-05-29T07:10:55.066Z,48.57
2019-05-29T07:12:19.461Z,48.40
2019-05-29T07:13:25.268Z,48.24
2019-05-29T07:14:30.263Z,48.07
2019-05-29T07:15:54.964Z,47.88
2019-05-29T07:16:59.958Z,47.70
2019-05-29T07:19:18.361Z,47.50
2019-05-29T07:20:50.317Z,47.43
2019-05-29T07:21:55.254Z,47.41
2019-05-29T07:23:01.255Z,47.40
2019-05-29T07:24:06.328Z,47.26
2019-05-29T07:25:31.046Z,47.18
2019-05-29T07:28:00.852Z,47.09
2019-05-29T07:29:08.485Z,47.10
2019-05-29T07:31:01.168Z,47.07
2019-05-29T07:32:18.263Z,47.15
2019-05-29T07:35:01.636Z,47.30
2019-05-29T07:36:14.365Z,47.38
2019-05-29T07:37:39.536Z,47.44
2019-05-29T07:39:44.038Z,47.38
2019-05-29T07:40:50.127Z,47.38
2019-05-29T07:42:15.686Z,47.39
2019-05-29T07:43:20.602Z,47.39
2019-05-29T07:44:26.182Z,47.25
2019-05-29T07:45:50.258Z,47.18
2019-05-29T07:46:55.656Z,47.15
2019-05-29T07:49:38.587Z,47.03
2019-05-29T07:51:10.523Z,47.01
2019-05-29T07:52:24.110Z,46.95
2019-05-29T07:53:48.828Z,46.84
2019-05-29T07:55:54.179Z,46.80
2019-05-29T07:57:18.474Z,46.79
2019-05-29T07:58:23.751Z,46.82
2019-05-29T08:01:11.547Z,46.60
2019-05-29T08:02:45.355Z,46.17
2019-05-29T08:04:11.569Z,45.88
2019-05-29T08:05:56.174Z,45.71
2019-05-29T08:07:20.319Z,45.41
2019-05-29T08:08:25.834Z,45.27
2019-05-29T08:09:50.007Z,45.19
2019-05-29T08:11:14.736Z,44.97
2019-05-29T08:14:02.918Z,44.54
2019-05-29T08:15:57.574Z,44.45
2019-05-29T08:17:32.889Z,44.45
2019-05-29T08:20:20.858Z,44.24
2019-05-29T08:21:44.877Z,44.00
2019-05-29T08:22:50.547Z,43.69
2019-05-29T08:24:16.494Z,43.49
2019-05-29T08:25:21.563Z,43.30
2019-05-29T08:26:27.102Z,43.12
2019-05-29T08:27:32.074Z,42.96
2019-05-29T08:28:38.107Z,42.86
2019-05-29T08:30:02.630Z,42.86
2019-05-29T08:31:27.595Z,42.74
2019-05-29T08:32:32.715Z,42.75
2019-05-29T08:33:57.477Z,42.75
2019-05-29T08:35:21.779Z,42.82
2019-05-29T08:37:01.135Z,42.90
2019-05-29T08:38:30.988Z,42.94
2019-05-29T08:39:37.183Z,42.84
2019-05-29T08:41:05.802Z,42.78
2019-05-29T08:42:29.655Z,42.65
2019-05-29T08:43:34.695Z,42.34
2019-05-29T08:49:25.064Z,42.45
2019-05-29T08:50:30.017Z,42.59
2019-05-29T08:51:35.586Z,42.73
2019-05-29T08:52:41.697Z,42.86
2019-05-29T08:54:23.014Z,42.80
2019-05-29T08:55:52.747Z,42.78
2019-05-29T08:58:44.317Z,42.82
2019-05-29T09:00:53.207Z,42.84
2019-05-29T09:02:15.409Z,42.87
2019-05-29T09:03:40.106Z,42.54
2019-05-29T09:05:04.336Z,42.32
2019-05-29T09:06:13.491Z,42.27
2019-05-29T09:07:55.327Z,42.23
2019-05-29T09:09:00.270Z,42.29
2019-05-29T09:11:56.703Z,42.08
2019-05-29T09:13:05.090Z,41.76
2019-05-29T09:14:47.472Z,41.55
2019-05-29T09:15:53.159Z,41.30
2019-05-29T09:17:18.406Z,40.95
2019-05-29T09:21:01.694Z,40.81
2019-05-29T09:22:13.855Z,40.44
2019-05-29T09:23:39.417Z,40.43
2019-05-29T09:24:44.394Z,40.46
2019-05-29T09:26:15.686Z,40.47
2019-05-29T09:27:35.129Z,40.26
2019-05-29T09:30:44.398Z,39.93
2019-05-29T09:33:53.063Z,39.80
2019-05-29T09:35:18.455Z,39.74
2019-05-29T09:36:43.860Z,39.78
2019-05-29T09:38:07.988Z,39.82
2019-05-29T09:39:14.967Z,39.85
2019-05-29T09:40:58.815Z,39.84
2019-05-29T09:42:23.725Z,39.76
2019-05-29T09:43:58.852Z,39.63
2019-05-29T09:45:16.629Z,39.52
2019-05-29T09:47:01.347Z,39.56
2019-05-29T09:48:28.326Z,39.59
2019-05-29T09:49:52.176Z,39.65
2019-05-29T09:50:57.711Z,39.68
2019-05-29T09:52:04.062Z,39.60
2019-05-29T09:53:48.153Z,39.44
2019-05-29T09:54:54.627Z,39.35
2019-05-29T09:56:19.737Z,39.29
2019-05-29T09:57:43.908Z,39.29
2019-05-29T09:58:49.409Z,39.17
2019-05-29T10:00:13.668Z,39.01
2019-05-29T10:01:38.886Z,38.93
2019-05-29T10:03:44.135Z,38.85
2019-05-29T10:05:49.730Z,38.71
2019-05-29T10:06:55.969Z,38.81
2019-05-29T10:08:39.965Z,38.82
2019-05-29T10:09:44.918Z,38.71
2019-05-29T10:11:10.978Z,38.61
2019-05-29T10:12:55.360Z,38.61
2019-05-29T10:14:21.123Z,38.65
2019-05-29T10:15:26.439Z,38.60
2019-05-29T10:16:32.017Z,38.57
2019-05-29T10:17:56.995Z,38.56
2019-05-29T10:19:22.110Z,38.46
2019-05-29T10:21:06.964Z,38.38
2019-05-29T10:22:31.012Z,38.23
2019-05-29T10:23:35.997Z,38.16
2019-05-29T10:24:41.615Z,38.12
2019-05-29T10:26:06.545Z,38.04
2019-05-29T10:29:21.475Z,37.65
2019-05-29T10:31:06.229Z,37.46
2019-05-29T10:32:32.230Z,37.22
2019-05-29T10:33:56.939Z,37.15
2019-05-29T10:35:02.249Z,37.11
2019-05-29T10:36:49.997Z,37.06
2019-05-29T10:38:12.925Z,36.99
2019-05-29T10:39:18.561Z,37.03
2019-05-29T10:40:23.707Z,37.04
2019-05-29T10:41:29.209Z,36.99
2019-05-29T10:42:53.667Z,36.95
2019-05-29T10:44:17.690Z,36.87
2019-05-29T10:46:02.283Z,36.69
2019-05-29T10:47:26.705Z,36.70
2019-05-29T10:48:32.288Z,36.84
2019-05-29T10:49:37.396Z,36.96
2019-05-29T10:51:02.170Z,37.03
2019-05-29T10:52:26.196Z,37.10
2019-05-29T10:53:31.205Z,36.99
2019-05-29T10:54:39.206Z,36.86
2019-05-29T10:56:03.358Z,36.83
2019-05-29T10:57:28.106Z,36.76
2019-05-29T10:58:58.967Z,36.58
2019-05-29T11:00:57.977Z,36.55
2019-05-29T11:02:03.378Z,36.58
2019-05-29T11:03:28.348Z,36.63
2019-05-29T11:04:33.725Z,36.54
2019-05-29T11:05:39.593Z,36.36
2019-05-29T11:06:46.087Z,36.34
2019-05-29T11:08:29.904Z,36.31
2019-05-29T11:09:44.639Z,36.28
2019-05-29T11:11:01.674Z,36.27
2019-05-29T11:12:46.487Z,36.17
2019-05-29T11:13:52.749Z,36.12
2019-05-29T11:17:21.281Z,35.61
2019-05-29T11:18:47.407Z,35.70
2019-05-29T11:24:10.530Z,35.50
2019-05-29T11:27:45.648Z,35.33
2019-05-29T11:30:55.593Z,34.96
2019-05-29T11:32:20.628Z,34.95
2019-05-29T11:33:26.172Z,34.89
2019-05-29T11:34:31.138Z,34.73
2019-05-29T11:36:07.327Z,34.57
2019-05-29T11:37:41.348Z,34.40
2019-05-29T11:39:06.281Z,34.38
2019-05-29T11:41:05.203Z,34.22
2019-05-29T11:42:35.824Z,34.27
2019-05-29T11:45:51.109Z,34.16
2019-05-29T11:47:34.907Z,34.00
2019-05-29T11:50:50.589Z,34.18
2019-05-29T11:53:20.381Z,33.94
2019-05-29T11:54:25.334Z,33.83
2019-05-29T11:55:31.138Z,33.77
2019-05-29T11:56:57.432Z,33.70
2019-05-29T11:58:31.122Z,33.57
2019-05-29T12:00:18.923Z,33.42
2019-05-29T12:01:49.745Z,33.45
2019-05-29T12:03:01.796Z,33.43
2019-05-29T12:04:28.376Z,33.33
2019-05-29T12:05:33.608Z,33.32
2019-05-29T12:06:59.492Z,33.23
2019-05-29T12:08:24.711Z,33.17
2019-05-29T12:09:33.446Z,33.12
2019-05-29T12:11:15.513Z,33.21
2019-05-29T12:12:39.513Z,33.24
2019-05-29T12:13:47.047Z,33.06
2019-05-29T12:16:41.606Z,32.82
2019-05-29T12:18:23.170Z,32.69
2019-05-29T12:19:31.954Z,32.74
2019-05-29T12:20:37.635Z,32.92
2019-05-29T12:23:45.149Z,32.68
2019-05-29T12:24:52.388Z,32.63
2019-05-29T12:26:36.045Z,32.60
2019-05-29T12:27:41.001Z,32.57
2019-05-29T12:29:11.451Z,32.50
2019-05-29T12:31:10.959Z,32.42
2019-05-29T12:32:35.154Z,32.42
2019-05-29T12:33:41.054Z,32.42
2019-05-29T12:34:53.461Z,32.51
2019-05-29T12:36:31.288Z,32.57
2019-05-29T12:39:19.553Z,32.44
2019-05-29T12:40:25.257Z,32.45
2019-05-29T12:41:30.210Z,32.45
2019-05-29T12:42:55.636Z,32.48
2019-05-29T12:44:40.114Z,32.32
2019-05-29T12:46:05.023Z,31.92
2019-05-29T12:47:31.664Z,31.62
2019-05-29T12:48:37.178Z,31.54
2019-05-29T12:49:42.648Z,31.52
2019-05-29T12:51:07.395Z,31.59
2019-05-29T12:52:31.520Z,31.54
2019-05-29T12:53:37.058Z,31.40
2019-05-29T12:55:21.644Z,31.47
2019-05-29T12:56:26.591Z,31.50
2019-05-29T12:57:50.843Z,31.41
2019-05-29T12:58:58.368Z,31.36
2019-05-29T13:02:33.680Z,31.46
2019-05-29T13:03:58.635Z,31.49
2019-05-29T13:06:04.459Z,31.47
2019-05-29T13:07:48.699Z,31.34
2019-05-29T13:09:12.816Z,31.18
2019-05-29T13:10:37.957Z,30.95
2019-05-29T13:11:42.910Z,30.86
2019-05-29T13:14:12.594Z,30.59
2019-05-29T13:15:58.660Z,30.58
2019-05-29T13:17:42.817Z,30.61
2019-05-29T13:18:48.418Z,30.90
2019-05-29T13:19:57.612Z,31.09
2019-05-29T13:21:38.941Z,31.18
2019-05-29T13:23:05.451Z,31.21
2019-05-29T13:24:29.794Z,31.23
2019-05-29T13:25:35.461Z,31.42
2019-05-29T13:26:40.466Z,31.47
2019-05-29T13:28:05.912Z,31.46
2019-05-29T13:29:49.499Z,31.44
2019-05-29T13:31:13.522Z,31.54
2019-05-29T13:32:18.457Z,31.68
2019-05-29T13:33:24.172Z,31.80
2019-05-29T13:34:29.194Z,31.76
2019-05-29T13:35:35.061Z,31.75
2019-05-29T13:37:03.427Z,31.54
2019-05-29T13:38:44.678Z,31.41
2019-05-29T13:40:09.719Z,31.43
2019-05-29T13:41:14.660Z,31.43
2019-05-29T13:43:05.333Z,31.47
2019-05-29T13:44:25.948Z,31.44
2019-05-29T13:45:49.968Z,31.50
2019-05-29T13:46:54.898Z,31.46
2019-05-29T13:48:18.900Z,31.45
2019-05-29T13:49:23.982Z,31.47
2019-05-29T13:50:29.477Z,31.50
2019-05-29T13:53:23.668Z,31.39
2019-05-29T13:54:28.652Z,31.39
2019-05-29T13:55:53.366Z,31.50
2019-05-29T13:56:59.597Z,31.49
2019-05-29T13:58:25.030Z,31.50
2019-05-29T13:59:49.359Z,31.51
2019-05-29T14:00:54.992Z,31.46
2019-05-29T14:02:19.273Z,31.45
2019-05-29T14:03:43.765Z,31.52
2019-05-29T14:05:08.807Z,31.62
2019-05-29T14:06:53.776Z,31.81
2019-05-29T14:08:00.633Z,31.86
2019-05-29T14:10:07.765Z,31.68
2019-05-29T14:13:42.991Z,31.47
2019-05-29T14:15:27.801Z,31.27
2019-05-29T14:18:23.985Z,31.10
2019-05-29T14:23:23.201Z,31.07
2019-05-29T14:24:47.290Z,31.04
2019-05-29T14:25:52.447Z,30.74
2019-05-29T14:26:58.098Z,30.49
2019-05-29T14:28:22.193Z,30.29
2019-05-29T14:29:27.232Z,30.16
2019-05-29T14:30:51.970Z,30.00
2019-05-29T14:32:16.112Z,29.73
2019-05-29T14:33:40.147Z,29.57
2019-05-29T14:36:28.613Z,29.44
2019-05-29T14:37:53.896Z,29.33
2019-05-29T14:39:18.056Z,29.21
2019-05-29T14:40:23.641Z,29.17
2019-05-29T14:41:29.108Z,29.18
2019-05-29T14:42:35.045Z,29.16
2019-05-29T14:43:59.171Z,29.03
2019-05-29T14:45:23.390Z,28.74
2019-05-29T14:46:28.966Z,28.49
2019-05-29T14:47:53.203Z,28.18
2019-05-29T14:48:58.774Z,28.02
2019-05-29T14:53:37.492Z,28.24
2019-05-29T14:54:43.133Z,27.95
2019-05-29T14:55:48.107Z,27.80
2019-05-29T14:56:53.960Z,27.82
2019-05-29T14:58:38.753Z,27.82
2019-05-29T14:59:44.323Z,28.05
2019-05-29T15:00:49.999Z,28.23
2019-05-29T15:02:21.618Z,28.44
2019-05-29T15:03:40.896Z,28.66
2019-05-29T15:04:45.820Z,28.70
2019-05-29T15:05:51.859Z,28.58
2019-05-29T15:06:56.845Z,28.49
2019-05-29T15:08:04.131Z,28.43
2019-05-29T15:09:28.273Z,28.41
2019-05-29T15:10:53.103Z,28.52
2019-05-29T15:13:29.041Z,28.75
2019-05-29T15:14:53.155Z,28.80
2019-05-29T15:16:17.205Z,28.73
2019-05-29T15:17:22.611Z,28.82
2019-05-29T15:18:28.848Z,28.99
2019-05-29T15:19:52.921Z,29.16
2019-05-29T15:20:58.554Z,29.29
2019-05-29T15:23:48.174Z,29.60
2019-05-29T15:25:03.231Z,29.84
2019-05-29T15:26:39.094Z,30.09
2019-05-29T15:28:03.203Z,30.40
2019-05-29T15:29:27.485Z,30.63
2019-05-29T15:30:52.327Z,30.77
2019-05-29T15:31:57.538Z,30.83
2019-05-29T15:33:03.098Z,30.84
2019-05-29T15:34:08.231Z,30.85
2019-05-29T15:37:18.866Z,30.83
2019-05-29T15:39:03.035Z,30.80
2019-05-29T15:40:47.982Z,30.81
2019-05-29T15:41:53.088Z,30.86
2019-05-29T15:43:17.454Z,30.92
2019-05-29T15:44:41.688Z,30.87
2019-05-29T15:45:47.358Z,30.85
2019-05-29T15:47:12.922Z,30.80
2019-05-29T15:51:02.379Z,30.79
2019-05-29T15:53:57.693Z,30.71
2019-05-29T15:55:32.117Z,30.69
2019-05-29T15:58:37.265Z,30.72
2019-05-29T16:00:02.494Z,30.74
2019-05-29T16:01:07.757Z,30.72
2019-05-29T16:02:13.745Z,30.65
2019-05-29T16:08:37.829Z,30.90
2019-05-29T16:10:01.993Z,31.04
2019-05-29T16:11:08.579Z,31.15
2019-05-29T16:12:53.298Z,31.18
2019-05-29T16:16:02.011Z,31.12
2019-05-29T16:17:26.209Z,31.12
2019-05-29T16:18:31.778Z,31.27
2019-05-29T16:19:36.753Z,31.46
2019-05-29T16:21:01.893Z,31.62
2019-05-29T16:22:06.973Z,31.70
2019-05-29T16:23:13.959Z,31.74
2019-05-29T16:28:24.096Z,31.77
2019-05-29T16:29:49.009Z,31.92
2019-05-29T16:31:13.006Z,32.08
2019-05-29T16:32:18.029Z,32.16
2019-05-29T16:33:42.129Z,32.15
2019-05-29T16:34:47.268Z,32.06
2019-05-29T16:35:52.925Z,31.98
2019-05-29T16:36:57.939Z,31.95
2019-05-29T16:38:03.491Z,31.88
2019-05-29T16:39:27.898Z,31.86
2019-05-29T16:40:52.961Z,31.75
2019-05-29T16:41:57.974Z,31.66
2019-05-29T16:43:23.118Z,31.64
2019-05-29T16:46:15.442Z,31.56
2019-05-29T16:47:56.411Z,31.61
2019-05-29T16:49:01.658Z,31.67
2019-05-29T16:51:51.395Z,31.47
2019-05-29T16:53:16.772Z,31.46
2019-05-29T16:55:01.652Z,31.44
2019-05-29T16:56:06.676Z,31.41
2019-05-29T16:57:12.964Z,31.36
2019-05-29T16:58:57.601Z,31.39
2019-05-29T17:00:03.241Z,31.51
2019-05-29T17:01:08.213Z,31.63
2019-05-29T17:02:32.932Z,31.74
2019-05-29T17:05:02.481Z,31.99
2019-05-29T17:06:07.829Z,32.09
2019-05-29T17:07:14.115Z,32.15
2019-05-29T17:08:39.665Z,32.18
2019-05-29T17:10:04.375Z,32.20
2019-05-29T17:12:52.991Z,32.25
2019-05-29T17:13:58.557Z,32.29
2019-05-29T17:15:22.941Z,32.39
2019-05-29T17:17:08.092Z,32.45
2019-05-29T17:18:32.473Z,32.60
2019-05-29T17:19:37.490Z,32.69
2019-05-29T17:21:22.896Z,32.85
2019-05-29T17:24:14.627Z,33.08
2019-05-29T17:26:19.158Z,33.19
2019-05-29T17:27:43.303Z,33.19
2019-05-29T17:28:48.835Z,33.21
2019-05-29T17:29:53.856Z,33.20
2019-05-29T17:31:18.933Z,33.16
2019-05-29T17:32:43.999Z,33.17
2019-05-29T17:33:49.601Z,33.21
2019-05-29T17:35:14.682Z,33.19
2019-05-29T17:36:58.899Z,33.18
2019-05-29T17:40:13.479Z,33.33
2019-05-29T17:41:38.541Z,33.45
2019-05-29T17:42:43.488Z,33.50
2019-05-29T17:43:49.137Z,33.54
2019-05-29T17:44:54.055Z,33.56
2019-05-29T17:45:59.692Z,33.59
2019-05-29T17:47:04.730Z,33.57
2019-05-29T17:48:10.383Z,33.53
2019-05-29T17:49:15.710Z,33.40
2019-05-29T17:50:23.124Z,33.37
2019-05-29T17:51:28.215Z,33.41
2019-05-29T17:52:33.758Z,33.46
2019-05-29T17:53:38.800Z,33.48
2019-05-29T17:54:44.689Z,33.55
2019-05-29T17:55:49.724Z,33.62
2019-05-29T17:56:55.529Z,33.62
2019-05-29T17:58:00.531Z,33.70
2019-05-29T17:59:06.357Z,33.82
2019-05-29T18:00:12.327Z,33.87
2019-05-29T18:01:18.279Z,33.95
2019-05-29T18:02:24.598Z,34.02
2019-05-29T18:03:30.191Z,34.11
2019-05-29T18:04:35.734Z,34.18
2019-05-29T18:05:41.759Z,34.20
2019-05-29T18:06:46.623Z,34.20
2019-05-29T18:07:52.284Z,34.24
2019-05-29T18:08:57.309Z,34.24
2019-05-29T18:10:03.169Z,34.30
2019-05-29T18:11:08.220Z,34.31
2019-05-29T18:12:13.792Z,34.36
2019-05-29T18:13:19.055Z,34.42
2019-05-29T18:14:25.348Z,34.46
2019-05-29T18:15:30.451Z,34.53
2019-05-29T18:16:36.046Z,34.57
2019-05-29T18:17:44.178Z,34.58
2019-05-29T18:18:48.320Z,34.51
2019-05-29T18:19:53.254Z,34.49
2019-05-29T18:20:58.786Z,34.50
2019-05-29T18:22:03.800Z,34.54
2019-05-29T18:23:09.374Z,34.58
2019-05-29T18:24:14.403Z,34.60
2019-05-29T18:25:21.909Z,34.71
2019-05-29T18:26:42.634Z,34.80
2019-05-29T18:27:34.153Z,34.88
2019-05-29T18:28:39.058Z,34.98
2019-05-29T18:29:44.737Z,35.04
2019-05-29T18:30:50.231Z,35.07
2019-05-29T18:31:55.796Z,35.12
2019-05-29T18:33:00.735Z,35.16
2019-05-29T18:34:06.393Z,35.18
2019-05-29T18:35:11.562Z,35.23
2019-05-29T18:36:17.117Z,35.24
2019-05-29T18:37:22.103Z,35.31
2019-05-29T18:38:28.767Z,35.39
2019-05-29T18:39:34.188Z,35.47
2019-05-29T18:40:39.784Z,35.57
2019-05-29T18:41:44.727Z,35.64
2019-05-29T18:42:50.244Z,35.73
2019-05-29T18:43:55.369Z,35.83
2019-05-29T18:45:01.257Z,35.98
2019-05-29T18:46:06.293Z,36.12
2019-05-29T18:47:11.871Z,36.23
2019-05-29T18:48:16.814Z,36.31
2019-05-29T18:49:22.489Z,36.34
2019-05-29T18:50:27.766Z,36.34
2019-05-29T18:51:33.598Z,36.33
2019-05-29T18:52:38.605Z,36.31
2019-05-29T18:53:44.610Z,36.29
2019-05-29T18:54:49.890Z,36.30
2019-05-29T18:55:55.730Z,36.38
2019-05-29T18:57:14.690Z,36.40
2019-05-29T18:58:08.449Z,36.42
2019-05-29T18:59:13.572Z,36.44
2019-05-29T19:00:19.435Z,36.46
2019-05-29T19:01:25.457Z,36.47
2019-05-29T19:02:31.626Z,36.51
2019-05-29T19:03:40.284Z,36.58
2019-05-29T19:04:44.145Z,36.62
2019-05-29T19:05:49.180Z,36.63
2019-05-29T19:06:54.726Z,36.67
2019-05-29T19:07:59.664Z,36.71
2019-05-29T19:09:07.527Z,36.76
2019-05-29T19:10:13.138Z,36.84
2019-05-29T19:11:18.842Z,36.85
2019-05-29T19:12:23.798Z,36.81
2019-05-29T19:13:29.967Z,36.82
2019-05-29T19:14:34.907Z,36.90
2019-05-29T19:15:40.571Z,36.93
2019-05-29T19:16:45.586Z,36.89
2019-05-29T19:17:51.188Z,36.89
2019-05-29T19:18:56.131Z,36.90
2019-05-29T19:20:01.634Z,36.91
2019-05-29T19:21:06.729Z,36.97
2019-05-29T19:22:12.303Z,37.02
2019-05-29T19:23:17.306Z,37.11
2019-05-29T19:24:22.820Z,37.19
2019-05-29T19:25:29.033Z,37.24
2019-05-29T19:26:36.770Z,37.32
2019-05-29T19:27:42.272Z,37.38
2019-05-29T19:28:48.175Z,37.40
2019-05-29T19:29:53.365Z,37.48
2019-05-29T19:30:58.977Z,37.52
2019-05-29T19:32:04.049Z,37.55
2019-05-29T19:33:09.552Z,37.57
2019-05-29T19:34:14.584Z,37.64
2019-05-29T19:35:20.655Z,37.67
2019-05-29T19:36:25.675Z,37.70
2019-05-29T19:37:32.101Z,37.76
2019-05-29T19:38:37.100Z,37.81
2019-05-29T19:39:42.962Z,37.88
2019-05-29T19:40:48.220Z,37.96